createdAt,value
2018-05-15T00:00:28.173Z,7.20
2018-05-15T00:01:28.206Z,7.10
2018-05-15T00:02:28.165Z,7.30
2018-05-15T00:03:28.175Z,6.90
2018-05-15T00:04:28.196Z,7.30
2018-05-15T00:05:28.173Z,6.40
2018-05-15T00:06:28.180Z,6.70
2018-05-15T00:07:28.190Z,6.80
2018-05-15T00:08:28.170Z,6.50
2018-05-15T00:09:28.171Z,7.10
2018-05-15T00:10:28.197Z,6.90
2018-05-15T00:11:28.455Z,6.60
2018-05-15T00:12:28.187Z,6.70
2018-05-15T00:13:28.232Z,6.80
2018-05-15T00:14:28.234Z,7.20
2018-05-15T00:15:28.197Z,6.80
2018-05-15T00:16:28.174Z,6.90
2018-05-15T00:17:28.178Z,6.90
2018-05-15T00:18:28.151Z,6.70
2018-05-15T00:19:28.164Z,6.80
2018-05-15T00:20:28.158Z,6.90
2018-05-15T00:21:28.176Z,6.60
2018-05-15T00:22:28.171Z,6.50
2018-05-15T00:23:28.161Z,7.60
2018-05-15T00:24:28.166Z,7.00
2018-05-15T00:25:28.171Z,6.90
2018-05-15T00:26:28.171Z,6.70
2018-05-15T00:27:28.197Z,6.80
2018-05-15T00:28:28.171Z,6.30
2018-05-15T00:29:28.178Z,6.40
2018-05-15T00:30:28.171Z,7.10
2018-05-15T00:31:28.468Z,6.80
2018-05-15T00:32:28.180Z,6.50
2018-05-15T00:33:28.234Z,6.60
2018-05-15T00:34:28.177Z,6.70
2018-05-15T00:35:28.204Z,6.50
2018-05-15T00:36:28.185Z,6.30
2018-05-15T00:37:28.182Z,6.40
2018-05-15T00:38:28.199Z,6.80
2018-05-15T00:39:34.251Z,6.60
2018-05-15T00:40:27.829Z,6.30
2018-05-15T00:41:28.240Z,6.50
2018-05-15T00:42:28.480Z,6.60
2018-05-15T00:43:28.191Z,6.60
2018-05-15T00:44:28.178Z,6.80
2018-05-15T00:45:28.180Z,6.20
2018-05-15T00:46:28.180Z,6.40
2018-05-15T00:47:28.198Z,6.40
2018-05-15T00:48:28.173Z,6.40
2018-05-15T00:49:28.169Z,6.10
2018-05-15T00:50:28.173Z,7.10
2018-05-15T00:51:28.172Z,6.70
2018-05-15T00:52:27.729Z,6.00
2018-05-15T00:53:28.204Z,6.30
2018-05-15T00:54:27.775Z,6.60
2018-05-15T00:55:28.458Z,7.10
2018-05-15T00:56:28.188Z,6.60
2018-05-15T00:57:28.208Z,6.00
2018-05-15T00:58:28.193Z,6.50
2018-05-15T00:59:28.189Z,6.90
2018-05-15T01:00:28.234Z,6.50
2018-05-15T01:01:28.200Z,6.80
2018-05-15T01:02:28.477Z,6.70
2018-05-15T01:03:28.236Z,6.40
2018-05-15T01:04:28.208Z,6.70
2018-05-15T01:05:28.184Z,7.30
2018-05-15T01:06:28.193Z,6.30
2018-05-15T01:07:28.193Z,6.70
2018-05-15T01:08:28.172Z,6.20
2018-05-15T01:09:28.215Z,6.40
2018-05-15T01:10:28.226Z,6.50
2018-05-15T01:11:28.221Z,6.80
2018-05-15T01:12:30.056Z,6.60
2018-05-15T01:13:28.246Z,6.20
2018-05-15T01:14:28.181Z,6.40
2018-05-15T01:15:28.230Z,6.30
2018-05-15T01:16:28.178Z,6.30
2018-05-15T01:17:27.878Z,6.40
2018-05-15T01:18:28.256Z,6.20
2018-05-15T01:19:28.229Z,6.30
2018-05-15T01:20:28.198Z,6.30
2018-05-15T01:21:28.171Z,6.40
2018-05-15T01:22:28.484Z,5.80
2018-05-15T01:23:28.553Z,6.40
2018-05-15T01:24:28.480Z,6.40
2018-05-15T01:25:28.191Z,6.10
2018-05-15T01:26:28.172Z,5.80
2018-05-15T01:27:28.193Z,5.70
2018-05-15T01:28:29.642Z,5.60
2018-05-15T01:29:28.197Z,5.90
2018-05-15T01:30:28.214Z,6.50
2018-05-15T01:31:28.182Z,6.50
2018-05-15T01:32:28.193Z,5.80
2018-05-15T01:33:28.212Z,6.00
2018-05-15T01:34:28.287Z,5.60
2018-05-15T01:35:28.213Z,5.50
2018-05-15T01:36:28.199Z,6.00
2018-05-15T01:37:28.236Z,5.70
2018-05-15T01:38:28.258Z,5.80
2018-05-15T01:39:28.291Z,5.50
2018-05-15T01:40:28.492Z,5.80
2018-05-15T01:41:28.210Z,6.00
2018-05-15T01:42:28.448Z,6.10
2018-05-15T01:43:28.374Z,5.60
2018-05-15T01:44:28.340Z,5.70
2018-05-15T01:45:28.208Z,6.10
2018-05-15T01:46:28.186Z,6.10
2018-05-15T01:47:28.199Z,6.00
2018-05-15T01:48:28.216Z,6.00
2018-05-15T01:49:28.209Z,6.00
2018-05-15T01:50:28.184Z,6.10
2018-05-15T01:51:28.238Z,6.40
2018-05-15T01:52:30.039Z,6.10
2018-05-15T01:53:28.219Z,6.00
2018-05-15T01:54:28.230Z,6.70
2018-05-15T01:55:28.246Z,6.40
2018-05-15T01:56:28.222Z,6.20
2018-05-15T01:57:27.955Z,6.20
2018-05-15T01:58:28.258Z,6.20
2018-05-15T01:59:28.278Z,5.90
2018-05-15T02:00:28.269Z,6.50
2018-05-15T02:01:28.252Z,7.00
2018-05-15T02:02:28.250Z,6.40
2018-05-15T02:03:28.257Z,6.10
2018-05-15T02:04:28.257Z,6.40
2018-05-15T02:05:28.293Z,6.50
2018-05-15T02:06:28.296Z,6.50
2018-05-15T02:07:28.327Z,6.30
2018-05-15T02:08:28.251Z,5.90
2018-05-15T02:09:28.477Z,6.80
2018-05-15T02:10:28.330Z,6.10
2018-05-15T02:11:28.480Z,6.20
2018-05-15T02:12:28.189Z,6.70
2018-05-15T02:13:28.236Z,6.60
2018-05-15T02:14:28.186Z,6.20
2018-05-15T02:15:28.175Z,6.60
2018-05-15T02:16:28.247Z,6.20
2018-05-15T02:17:28.466Z,6.00
2018-05-15T02:18:28.009Z,5.90
2018-05-15T02:19:28.183Z,6.40
2018-05-15T02:20:28.495Z,6.10
2018-05-15T02:21:28.465Z,6.50
2018-05-15T02:22:28.329Z,6.20
2018-05-15T02:23:28.466Z,6.00
2018-05-15T02:24:28.332Z,6.80
2018-05-15T02:25:28.333Z,6.60
2018-05-15T02:26:28.021Z,6.70
2018-05-15T02:27:28.473Z,6.40
2018-05-15T02:28:28.338Z,6.70
2018-05-15T02:29:28.335Z,6.90
2018-05-15T02:30:28.436Z,6.30
2018-05-15T02:31:28.357Z,7.00
2018-05-15T02:32:28.352Z,6.40
2018-05-15T02:33:28.315Z,6.10
2018-05-15T02:34:28.270Z,6.80
2018-05-15T02:35:28.265Z,6.90
2018-05-15T02:36:28.266Z,6.80
2018-05-15T02:37:28.292Z,6.60
2018-05-15T02:38:28.295Z,6.70
2018-05-15T02:39:28.315Z,6.80
2018-05-15T02:40:28.476Z,6.80
2018-05-15T02:41:28.338Z,6.80
2018-05-15T02:42:28.331Z,6.60
2018-05-15T02:43:28.326Z,6.70
2018-05-15T02:44:28.357Z,7.10
2018-05-15T02:45:28.351Z,7.10
2018-05-15T02:46:28.295Z,7.20
2018-05-15T02:47:28.334Z,7.10
2018-05-15T02:48:28.347Z,6.80
2018-05-15T02:49:28.342Z,6.70
2018-05-15T02:50:28.391Z,7.10
2018-05-15T02:51:28.405Z,6.30
2018-05-15T02:52:28.375Z,6.90
2018-05-15T02:53:28.411Z,6.80
2018-05-15T02:54:28.480Z,6.90
2018-05-15T02:55:28.347Z,6.80
2018-05-15T02:56:28.442Z,6.70
2018-05-15T02:57:28.288Z,7.00
2018-05-15T02:58:28.297Z,7.00
2018-05-15T02:59:28.275Z,7.30
2018-05-15T03:00:28.309Z,7.10
2018-05-15T03:01:28.271Z,7.00
2018-05-15T03:02:28.403Z,6.90
2018-05-15T03:03:28.342Z,7.60
2018-05-15T03:04:28.356Z,7.10
2018-05-15T03:05:28.449Z,7.10
2018-05-15T03:06:28.446Z,7.20
2018-05-15T03:07:28.443Z,7.40
2018-05-15T03:08:28.495Z,6.50
2018-05-15T03:09:27.705Z,7.10
2018-05-15T03:10:28.438Z,6.90
2018-05-15T03:11:28.411Z,7.00
2018-05-15T03:12:30.262Z,7.00
2018-05-15T03:13:28.504Z,7.10
2018-05-15T03:14:28.497Z,7.10
2018-05-15T03:15:28.487Z,7.80
2018-05-15T03:16:28.481Z,7.30
2018-05-15T03:17:28.416Z,7.10
2018-05-15T03:18:28.501Z,7.50
2018-05-15T03:19:28.478Z,7.00
2018-05-15T03:20:28.513Z,7.40
2018-05-15T03:21:28.499Z,7.40
2018-05-15T03:22:28.500Z,7.50
2018-05-15T03:23:34.244Z,6.90
2018-05-15T03:24:28.376Z,7.50
2018-05-15T03:25:28.410Z,7.20
2018-05-15T03:26:28.486Z,7.50
2018-05-15T03:27:28.425Z,6.80
2018-05-15T03:28:28.473Z,7.50
2018-05-15T03:29:28.760Z,7.70
2018-05-15T03:30:28.749Z,7.50
2018-05-15T03:31:28.742Z,7.60
2018-05-15T03:32:28.770Z,8.30
2018-05-15T03:33:28.758Z,8.10
2018-05-15T03:34:30.755Z,8.30
2018-05-15T03:35:28.757Z,7.90
2018-05-15T03:36:28.772Z,7.80
2018-05-15T03:37:28.769Z,7.30
2018-05-15T03:38:28.994Z,8.10
2018-05-15T03:39:28.735Z,7.50
2018-05-15T03:40:28.746Z,7.80
2018-05-15T03:41:28.796Z,7.90
2018-05-15T03:42:28.755Z,7.40
2018-05-15T03:43:28.793Z,8.10
2018-05-15T03:44:28.801Z,8.20
2018-05-15T03:45:28.737Z,8.60
2018-05-15T03:46:28.788Z,8.50
2018-05-15T03:47:28.791Z,7.90
2018-05-15T03:48:28.801Z,8.80
2018-05-15T03:49:28.804Z,8.70
2018-05-15T03:50:28.826Z,8.60
2018-05-15T03:51:28.814Z,8.10
2018-05-15T03:52:28.817Z,8.30
2018-05-15T03:53:28.769Z,8.20
2018-05-15T03:54:28.806Z,8.10
2018-05-15T03:55:28.769Z,8.50
2018-05-15T03:56:28.762Z,8.80
2018-05-15T03:57:28.763Z,8.80
2018-05-15T03:58:28.786Z,8.70
2018-05-15T03:59:28.800Z,8.50
2018-05-15T04:00:28.814Z,8.30
2018-05-15T04:01:28.239Z,8.40
2018-05-15T04:02:28.804Z,8.50
2018-05-15T04:03:28.787Z,8.80
2018-05-15T04:04:28.802Z,9.50
2018-05-15T04:05:28.765Z,9.20
2018-05-15T04:06:28.750Z,8.60
2018-05-15T04:07:28.739Z,8.90
2018-05-15T04:08:28.732Z,9.30
2018-05-15T04:09:28.750Z,8.80
2018-05-15T04:10:28.735Z,9.20
2018-05-15T04:11:28.743Z,9.20
2018-05-15T04:12:28.736Z,9.30
2018-05-15T04:13:28.800Z,9.50
2018-05-15T04:14:28.791Z,9.00
2018-05-15T04:15:28.792Z,9.20
2018-05-15T04:16:28.749Z,9.00
2018-05-15T04:17:28.744Z,9.50
2018-05-15T04:18:28.176Z,9.10
2018-05-15T04:19:28.790Z,9.00
2018-05-15T04:20:28.769Z,8.80
2018-05-15T04:21:28.793Z,9.40
2018-05-15T04:22:28.757Z,9.00
2018-05-15T04:23:28.815Z,8.80
2018-05-15T04:24:28.766Z,8.80
2018-05-15T04:25:29.045Z,9.30
2018-05-15T04:26:28.787Z,8.80
2018-05-15T04:27:28.816Z,9.10
2018-05-15T04:28:28.871Z,9.30
2018-05-15T04:29:28.752Z,9.90
2018-05-15T04:30:28.801Z,9.40
2018-05-15T04:31:28.822Z,9.90
2018-05-15T04:32:28.804Z,9.50
2018-05-15T04:33:29.038Z,9.60
2018-05-15T04:34:28.735Z,8.70
2018-05-15T04:35:28.741Z,9.20
2018-05-15T04:36:28.736Z,9.60
2018-05-15T04:37:28.744Z,9.50
2018-05-15T04:38:28.768Z,9.20
2018-05-15T04:39:28.750Z,9.60
2018-05-15T04:40:28.742Z,9.60
2018-05-15T04:41:28.745Z,9.50
2018-05-15T04:42:28.791Z,9.60
2018-05-15T04:43:28.986Z,9.90
2018-05-15T04:44:28.744Z,9.30
2018-05-15T04:45:28.754Z,9.60
2018-05-15T04:46:28.808Z,9.50
2018-05-15T04:47:28.757Z,9.20
2018-05-15T04:48:28.750Z,9.30
2018-05-15T04:49:30.823Z,9.30
2018-05-15T04:50:28.811Z,10.60
2018-05-15T04:51:29.038Z,9.60
2018-05-15T04:52:28.805Z,9.40
2018-05-15T04:53:31.072Z,9.90
2018-05-15T04:54:28.808Z,9.50
2018-05-15T04:55:28.818Z,9.20
2018-05-15T04:56:28.825Z,9.20
2018-05-15T04:57:28.730Z,9.80
2018-05-15T04:58:28.747Z,9.60
2018-05-15T04:59:28.749Z,9.10
2018-05-15T05:00:28.757Z,9.40
2018-05-15T05:01:28.769Z,9.40
2018-05-15T05:02:28.752Z,9.10
2018-05-15T05:03:28.768Z,9.60
2018-05-15T05:04:28.809Z,9.10
2018-05-15T05:05:29.068Z,9.00
2018-05-15T05:06:28.246Z,9.40
2018-05-15T05:07:28.813Z,8.80
2018-05-15T05:08:28.830Z,8.50
2018-05-15T05:09:28.857Z,8.60
2018-05-15T05:10:29.210Z,8.90
2018-05-15T05:11:28.806Z,9.00
2018-05-15T05:12:28.753Z,8.70
2018-05-15T05:13:28.811Z,8.80
2018-05-15T05:14:29.026Z,8.40
2018-05-15T05:15:28.825Z,8.70
2018-05-15T05:16:29.068Z,9.00
2018-05-15T05:17:28.315Z,8.30
2018-05-15T05:18:29.125Z,8.80
2018-05-15T05:19:28.575Z,8.40
2018-05-15T05:20:29.206Z,8.30
2018-05-15T05:21:28.839Z,8.80
2018-05-15T05:22:28.810Z,8.50
2018-05-15T05:23:28.828Z,8.80
2018-05-15T05:24:28.834Z,8.30
2018-05-15T05:25:29.071Z,8.60
2018-05-15T05:26:29.071Z,8.60
2018-05-15T05:27:28.267Z,8.40
2018-05-15T05:28:28.828Z,8.50
2018-05-15T05:29:29.081Z,8.60
2018-05-15T05:30:28.753Z,8.40
2018-05-15T05:31:29.385Z,8.40
2018-05-15T05:32:28.571Z,8.60
2018-05-15T05:33:28.786Z,8.20
2018-05-15T05:34:29.072Z,8.10
2018-05-15T05:35:29.075Z,8.20
2018-05-15T05:36:29.365Z,8.90
2018-05-15T05:37:29.146Z,8.50
2018-05-15T05:38:28.772Z,8.30
2018-05-15T05:39:28.794Z,8.30
2018-05-15T05:40:29.082Z,8.20
2018-05-15T05:41:28.814Z,8.10
2018-05-15T05:42:28.825Z,7.90
2018-05-15T05:43:28.822Z,8.00
2018-05-15T05:44:28.811Z,8.00
2018-05-15T05:45:28.800Z,8.20
2018-05-15T05:46:29.188Z,8.00
2018-05-15T05:47:29.084Z,8.50
2018-05-15T05:48:29.397Z,7.90
2018-05-15T05:49:27.393Z,8.20
2018-05-15T05:50:29.135Z,7.90
2018-05-15T05:51:28.752Z,8.50
2018-05-15T05:52:28.810Z,8.10
2018-05-15T05:53:28.785Z,8.00
2018-05-15T05:54:29.079Z,8.10
2018-05-15T05:55:29.072Z,8.10
2018-05-15T05:56:29.372Z,8.60
2018-05-15T05:57:29.080Z,8.70
2018-05-15T05:58:28.355Z,8.70
2018-05-15T05:59:29.083Z,8.70
2018-05-15T06:00:28.818Z,8.10
2018-05-15T06:01:29.063Z,8.10
2018-05-15T06:02:28.591Z,8.20
2018-05-15T06:03:29.075Z,7.90
2018-05-15T06:04:28.823Z,8.40
2018-05-15T06:05:29.085Z,8.80
2018-05-15T06:06:29.031Z,8.30
2018-05-15T06:07:28.843Z,8.50
2018-05-15T06:08:28.807Z,8.10
2018-05-15T06:09:29.084Z,8.00
2018-05-15T06:10:28.796Z,7.60
2018-05-15T06:11:29.086Z,8.40
2018-05-15T06:12:28.879Z,8.50
2018-05-15T06:13:29.440Z,8.30
2018-05-15T06:14:29.499Z,8.30
2018-05-15T06:15:29.086Z,8.30
2018-05-15T06:16:29.087Z,8.10
2018-05-15T06:17:29.563Z,8.20
2018-05-15T06:18:29.091Z,8.30
2018-05-15T06:19:28.787Z,7.90
2018-05-15T06:21:28.792Z,8.60
2018-05-15T06:22:28.822Z,8.00
2018-05-15T06:23:29.094Z,8.50
2018-05-15T06:24:29.081Z,8.10
2018-05-15T06:25:29.109Z,8.10
2018-05-15T06:26:29.377Z,8.20
2018-05-15T06:27:29.652Z,7.90
2018-05-15T06:28:28.830Z,7.90
2018-05-15T06:29:29.125Z,8.00
2018-05-15T06:30:29.072Z,7.80
2018-05-15T06:31:29.088Z,7.40
2018-05-15T06:32:28.410Z,7.70
2018-05-15T06:33:28.819Z,8.20
2018-05-15T06:34:28.359Z,7.90
2018-05-15T06:35:29.095Z,7.60
2018-05-15T06:36:29.103Z,7.50
2018-05-15T06:37:28.589Z,8.30
2018-05-15T06:38:29.667Z,8.00
2018-05-15T06:39:29.080Z,8.20
2018-05-15T06:40:36.096Z,8.20
2018-05-15T06:41:29.083Z,7.90
2018-05-15T06:42:28.885Z,8.30
2018-05-15T06:43:28.815Z,7.30
2018-05-15T06:44:29.120Z,7.90
2018-05-15T06:45:28.834Z,7.70
2018-05-15T06:46:30.648Z,7.50
2018-05-15T06:47:28.882Z,8.00
2018-05-15T06:48:28.553Z,7.50
2018-05-15T06:49:28.889Z,7.40
2018-05-15T06:50:28.845Z,7.60
2018-05-15T06:51:29.555Z,7.10
2018-05-15T06:52:28.562Z,7.60
2018-05-15T06:53:29.157Z,7.90
2018-05-15T06:54:28.908Z,8.40
2018-05-15T06:55:28.883Z,8.30
2018-05-15T06:56:29.439Z,8.20
2018-05-15T06:57:29.413Z,7.60
2018-05-15T06:58:29.081Z,7.40
2018-05-15T06:59:28.871Z,8.10
2018-05-15T07:00:28.865Z,7.40
2018-05-15T07:01:29.168Z,8.40
2018-05-15T07:02:29.151Z,8.10
2018-05-15T07:03:29.873Z,7.70
2018-05-15T07:04:28.864Z,7.80
2018-05-15T07:05:29.077Z,7.70
2018-05-15T07:06:29.139Z,8.20
2018-05-15T07:07:29.445Z,8.30
2018-05-15T07:08:29.107Z,7.40
2018-05-15T07:09:29.154Z,8.50
2018-05-15T07:10:29.165Z,8.40
2018-05-15T07:11:29.091Z,8.20
2018-05-15T07:12:29.058Z,8.60
2018-05-15T07:13:28.885Z,8.20
2018-05-15T07:14:29.085Z,8.00
2018-05-15T07:15:28.859Z,8.30
2018-05-15T07:16:28.517Z,8.00
2018-05-15T07:17:29.156Z,7.60
2018-05-15T07:18:29.178Z,7.60
2018-05-15T07:19:29.185Z,7.50
2018-05-15T07:20:29.392Z,7.80
2018-05-15T07:21:29.113Z,7.40
2018-05-15T07:22:28.964Z,8.20
2018-05-15T07:23:29.361Z,8.00
2018-05-15T07:24:28.998Z,7.80
2018-05-15T07:25:29.115Z,7.70
2018-05-15T07:26:29.262Z,7.50
2018-05-15T07:27:29.534Z,8.30
2018-05-15T07:28:28.891Z,7.80
2018-05-15T07:29:29.427Z,8.00
2018-05-15T07:30:29.014Z,8.00
2018-05-15T07:31:29.422Z,8.00
2018-05-15T07:32:29.134Z,7.80
2018-05-15T07:33:28.499Z,7.90
2018-05-15T07:34:28.871Z,7.80
2018-05-15T07:35:28.849Z,8.10
2018-05-15T07:36:28.905Z,8.10
2018-05-15T07:37:30.653Z,7.50
2018-05-15T07:38:29.137Z,7.80
2018-05-15T07:39:28.929Z,7.80
2018-05-15T07:40:29.160Z,8.10
2018-05-15T07:41:29.421Z,7.70
2018-05-15T07:42:29.127Z,7.90
2018-05-15T07:43:29.113Z,7.80
2018-05-15T07:44:28.970Z,7.40
2018-05-15T07:45:29.525Z,8.00
2018-05-15T07:46:31.629Z,7.50
2018-05-15T07:47:28.977Z,7.60
2018-05-15T07:48:29.566Z,7.30
2018-05-15T07:49:29.080Z,7.70
2018-05-15T07:50:29.091Z,7.90
2018-05-15T07:51:29.103Z,7.40
2018-05-15T07:52:29.186Z,7.80
2018-05-15T07:53:29.556Z,7.70
2018-05-15T07:54:35.357Z,7.60
2018-05-15T07:55:34.891Z,7.30
2018-05-15T07:56:29.572Z,7.90
2018-05-15T07:57:29.130Z,7.60
2018-05-15T07:58:28.933Z,7.50
2018-05-15T07:59:29.651Z,7.80
2018-05-15T08:00:29.430Z,7.50
2018-05-15T08:01:29.432Z,7.50
2018-05-15T08:02:29.746Z,8.00
2018-05-15T08:03:29.133Z,7.30
2018-05-15T08:04:29.223Z,7.70
2018-05-15T08:05:28.991Z,7.70
2018-05-15T08:06:28.847Z,7.70
2018-05-15T08:07:28.865Z,7.70
2018-05-15T08:08:29.413Z,7.60
2018-05-15T08:09:29.456Z,8.00
2018-05-15T08:10:29.376Z,7.80
2018-05-15T08:11:28.851Z,7.20
2018-05-15T08:12:28.870Z,7.90
2018-05-15T08:13:29.130Z,7.80
2018-05-15T08:14:28.878Z,7.60
2018-05-15T08:15:29.614Z,7.50
2018-05-15T08:16:29.453Z,8.00
2018-05-15T08:17:29.316Z,7.90
2018-05-15T08:18:28.994Z,7.50
2018-05-15T08:19:29.438Z,6.90
2018-05-15T08:20:29.495Z,7.70
2018-05-15T08:21:28.964Z,7.20
2018-05-15T08:22:29.508Z,7.80
2018-05-15T08:23:28.892Z,7.30
2018-05-15T08:24:28.996Z,7.20
2018-05-15T08:25:29.052Z,7.10
2018-05-15T08:26:29.190Z,8.00
2018-05-15T08:27:29.163Z,7.70
2018-05-15T08:28:29.746Z,7.40
2018-05-15T08:29:29.091Z,7.80
2018-05-15T08:30:28.890Z,7.10
2018-05-15T08:31:29.096Z,7.10
2018-05-15T08:32:29.534Z,7.30
2018-05-15T08:33:30.972Z,7.20
2018-05-15T08:34:29.620Z,7.50
2018-05-15T08:35:29.523Z,6.70
2018-05-15T08:36:29.517Z,7.30
2018-05-15T08:37:29.703Z,7.00
2018-05-15T08:38:28.926Z,7.20
2018-05-15T08:39:29.141Z,7.30
2018-05-15T08:40:29.762Z,6.90
2018-05-15T08:41:29.262Z,7.10
2018-05-15T08:42:30.012Z,7.00
2018-05-15T08:43:29.039Z,6.90
2018-05-15T08:44:29.248Z,6.90
2018-05-15T08:45:29.507Z,6.90
2018-05-15T08:46:29.594Z,6.60
2018-05-15T08:47:29.086Z,5.90
2018-05-15T08:48:29.077Z,6.40
2018-05-15T08:49:28.958Z,6.50
2018-05-15T08:50:29.011Z,6.50
2018-05-15T08:51:29.783Z,6.50
2018-05-15T08:52:29.542Z,6.00
2018-05-15T08:53:29.222Z,6.50
2018-05-15T08:54:28.997Z,6.60
2018-05-15T08:55:29.693Z,6.90
2018-05-15T08:56:29.670Z,6.50
2018-05-15T08:57:29.447Z,6.70
2018-05-15T08:58:29.576Z,7.00
2018-05-15T08:59:28.724Z,6.30
2018-05-15T09:00:29.155Z,6.50
2018-05-15T09:01:29.163Z,6.80
2018-05-15T09:02:29.659Z,6.20
2018-05-15T09:03:29.459Z,6.40
2018-05-15T09:04:29.473Z,6.30
2018-05-15T09:05:29.666Z,6.40
2018-05-15T09:06:29.427Z,6.60
2018-05-15T09:07:29.157Z,6.40
2018-05-15T09:08:29.441Z,5.80
2018-05-15T09:09:29.183Z,5.90
2018-05-15T09:10:29.668Z,5.90
2018-05-15T09:11:28.960Z,6.10
2018-05-15T09:12:29.459Z,6.20
2018-05-15T09:13:29.148Z,5.40
2018-05-15T09:14:29.617Z,6.20
2018-05-15T09:15:29.679Z,5.90
2018-05-15T09:16:28.992Z,6.30
2018-05-15T09:17:29.058Z,5.60
2018-05-15T09:18:29.058Z,5.60
2018-05-15T09:19:29.746Z,5.50
2018-05-15T09:20:29.192Z,5.80
2018-05-15T09:21:29.696Z,5.50
2018-05-15T09:22:28.965Z,5.60
2018-05-15T09:23:29.529Z,5.40
2018-05-15T09:25:35.659Z,5.80
2018-05-15T09:26:29.197Z,5.90
2018-05-15T09:27:29.203Z,5.50
2018-05-15T09:28:29.357Z,5.60
2018-05-15T09:29:29.229Z,5.30
2018-05-15T09:30:29.227Z,5.30
2018-05-15T09:31:29.461Z,5.00
2018-05-15T09:32:29.942Z,5.10
2018-05-15T09:33:29.975Z,5.30
2018-05-15T09:34:30.019Z,5.30
2018-05-15T09:35:29.712Z,5.40
2018-05-15T09:36:29.510Z,5.10
2018-05-15T09:37:30.101Z,5.40
2018-05-15T09:38:29.637Z,5.20
2018-05-15T09:39:29.521Z,5.20
2018-05-15T09:40:29.781Z,5.30
2018-05-15T09:41:29.705Z,5.80
2018-05-15T09:42:29.617Z,5.30
2018-05-15T09:43:28.784Z,5.70
2018-05-15T09:44:29.968Z,5.80
2018-05-15T09:45:29.715Z,5.90
2018-05-15T09:46:29.421Z,5.90
2018-05-15T09:47:29.675Z,5.60
2018-05-15T09:48:29.217Z,5.80
2018-05-15T09:49:29.465Z,5.60
2018-05-15T09:50:29.517Z,5.50
2018-05-15T09:51:29.689Z,5.60
2018-05-15T09:52:29.705Z,5.30
2018-05-15T09:53:29.672Z,5.40
2018-05-15T09:54:30.152Z,5.40
2018-05-15T09:55:31.279Z,5.50
2018-05-15T09:56:30.091Z,5.70
2018-05-15T09:57:30.813Z,5.40
2018-05-15T09:58:29.443Z,6.10
2018-05-15T09:59:30.010Z,5.90
2018-05-15T10:00:29.446Z,5.30
2018-05-15T10:01:29.464Z,5.50
2018-05-15T10:02:29.430Z,5.70
2018-05-15T10:03:29.724Z,5.10
2018-05-15T10:04:30.081Z,5.70
2018-05-15T10:05:29.792Z,5.40
2018-05-15T10:06:30.187Z,5.50
2018-05-15T10:07:29.467Z,5.80
2018-05-15T10:08:29.986Z,5.90
2018-05-15T10:09:29.632Z,6.10
2018-05-15T10:10:29.663Z,5.50
2018-05-15T10:11:29.634Z,5.90
2018-05-15T10:12:29.713Z,5.40
2018-05-15T10:13:29.587Z,6.00
2018-05-15T10:14:29.995Z,5.60
2018-05-15T10:15:30.184Z,5.50
2018-05-15T10:16:29.963Z,5.90
2018-05-15T10:17:30.036Z,5.80
2018-05-15T10:18:29.639Z,5.90
2018-05-15T10:19:29.992Z,6.00
2018-05-15T10:20:29.732Z,5.50
2018-05-15T10:21:29.521Z,5.70
2018-05-15T10:22:29.691Z,5.60
2018-05-15T10:23:29.694Z,5.80
2018-05-15T10:24:32.210Z,5.60
2018-05-15T10:25:30.047Z,5.70
2018-05-15T10:26:29.986Z,5.70
2018-05-15T10:27:29.969Z,5.50
2018-05-15T10:28:29.524Z,5.30
2018-05-15T10:29:29.895Z,5.20
2018-05-15T10:30:29.687Z,5.90
2018-05-15T10:31:29.772Z,5.60
2018-05-15T10:32:32.206Z,5.00
2018-05-15T10:33:29.628Z,5.60
2018-05-15T10:34:29.724Z,5.00
2018-05-15T10:35:30.023Z,5.60
2018-05-15T10:36:29.749Z,5.60
2018-05-15T10:37:30.022Z,5.50
2018-05-15T10:38:31.238Z,5.40
2018-05-15T10:39:29.469Z,5.60
2018-05-15T10:40:31.234Z,5.40
2018-05-15T10:41:29.434Z,6.10
2018-05-15T10:42:28.738Z,5.60
2018-05-15T10:43:35.506Z,5.60
2018-05-15T10:44:29.474Z,5.70
2018-05-15T10:45:29.428Z,5.30
2018-05-15T10:46:29.909Z,5.30
2018-05-15T10:47:29.737Z,5.70
2018-05-15T10:48:29.701Z,5.60
2018-05-15T10:49:29.971Z,5.50
2018-05-15T10:50:29.515Z,5.40
2018-05-15T10:51:29.600Z,5.70
2018-05-15T10:53:30.140Z,5.30
2018-05-15T10:54:30.101Z,5.50
2018-05-15T10:55:29.679Z,5.50
2018-05-15T10:56:30.297Z,5.20
2018-05-15T10:57:29.719Z,5.40
2018-05-15T10:58:30.106Z,5.20
2018-05-15T10:59:29.754Z,5.70
2018-05-15T11:00:29.749Z,5.50
2018-05-15T11:01:30.337Z,5.50
2018-05-15T11:02:29.513Z,5.20
2018-05-15T11:03:30.215Z,5.60
2018-05-15T11:04:29.819Z,4.80
2018-05-15T11:05:29.751Z,4.80
2018-05-15T11:06:29.444Z,5.00
2018-05-15T11:07:30.133Z,4.80
2018-05-15T11:08:30.170Z,4.70
2018-05-15T11:09:32.031Z,5.20
2018-05-15T11:10:29.958Z,4.90
2018-05-15T11:11:29.530Z,5.10
2018-05-15T11:12:29.795Z,5.10
2018-05-15T11:13:30.195Z,5.40
2018-05-15T11:14:29.216Z,5.10
2018-05-15T11:15:30.098Z,5.10
2018-05-15T11:16:29.301Z,5.70
2018-05-15T11:17:29.467Z,5.30
2018-05-15T11:18:29.724Z,5.10
2018-05-15T11:19:29.280Z,5.00
2018-05-15T11:20:31.749Z,4.70
2018-05-15T11:21:30.116Z,5.20
2018-05-15T11:22:30.213Z,4.80
2018-05-15T11:23:30.218Z,4.60
2018-05-15T11:24:29.832Z,5.60
2018-05-15T11:25:30.139Z,5.00
2018-05-15T11:26:30.225Z,4.90
2018-05-15T11:27:29.737Z,5.00
2018-05-15T11:28:30.257Z,5.30
2018-05-15T11:29:29.576Z,5.50
2018-05-15T11:30:29.792Z,5.50
2018-05-15T11:31:29.766Z,4.90
2018-05-15T11:32:29.816Z,5.70
2018-05-15T11:33:30.066Z,4.80
2018-05-15T11:34:30.252Z,5.00
2018-05-15T11:35:29.293Z,5.20
2018-05-15T11:36:30.250Z,5.40
2018-05-15T11:37:29.791Z,5.60
2018-05-15T11:38:30.143Z,5.10
2018-05-15T11:39:30.186Z,5.20
2018-05-15T11:40:30.351Z,5.40
2018-05-15T11:41:30.317Z,5.70
2018-05-15T11:42:30.327Z,5.30
2018-05-15T11:43:30.622Z,5.60
2018-05-15T11:44:30.181Z,5.30
2018-05-15T11:45:30.438Z,5.20
2018-05-15T11:46:29.725Z,5.50
2018-05-15T11:47:30.595Z,5.40
2018-05-15T11:48:30.047Z,5.10
2018-05-15T11:49:31.511Z,5.40
2018-05-15T11:50:30.883Z,5.10
2018-05-15T11:51:31.569Z,4.90
2018-05-15T11:52:31.546Z,4.80
2018-05-15T11:53:30.271Z,5.40
2018-05-15T11:54:30.687Z,5.40
2018-05-15T11:55:35.292Z,5.00
2018-05-15T11:56:30.098Z,4.80
2018-05-15T11:57:29.790Z,5.00
2018-05-15T11:58:30.527Z,5.00
2018-05-15T11:59:30.195Z,5.10
2018-05-15T12:00:30.198Z,4.40
2018-05-15T12:01:30.857Z,5.30
2018-05-15T12:02:30.643Z,5.30
2018-05-15T12:03:30.557Z,4.90
2018-05-15T12:04:30.541Z,4.80
2018-05-15T12:05:30.542Z,4.80
2018-05-15T12:06:30.770Z,4.90
2018-05-15T12:07:30.238Z,5.20
2018-05-15T12:08:30.596Z,4.90
2018-05-15T12:09:30.199Z,5.10
2018-05-15T12:10:30.729Z,5.20
2018-05-15T12:11:29.653Z,5.40
2018-05-15T12:12:29.948Z,5.40
2018-05-15T12:13:30.309Z,5.10
2018-05-15T12:14:30.753Z,5.20
2018-05-15T12:15:30.298Z,4.80
2018-05-15T12:16:30.278Z,4.70
2018-05-15T12:17:30.035Z,4.80
2018-05-15T12:18:30.029Z,5.10
2018-05-15T12:19:29.994Z,4.80
2018-05-15T12:20:30.246Z,5.20
2018-05-15T12:21:29.752Z,5.00
2018-05-15T12:22:30.779Z,4.80
2018-05-15T12:23:30.301Z,4.50
2018-05-15T12:24:30.731Z,4.40
2018-05-15T12:25:29.809Z,5.20
2018-05-15T12:26:30.296Z,4.60
2018-05-15T12:27:30.783Z,4.50
2018-05-15T12:28:30.527Z,4.50
2018-05-15T12:29:30.295Z,4.30
2018-05-15T12:30:30.298Z,4.90
2018-05-15T12:31:30.247Z,4.20
2018-05-15T12:32:30.204Z,4.20
2018-05-15T12:33:30.508Z,4.50
2018-05-15T12:34:30.276Z,4.20
2018-05-15T12:35:31.096Z,4.40
2018-05-15T12:36:30.265Z,4.30
2018-05-15T12:37:30.570Z,4.10
2018-05-15T12:38:30.205Z,4.20
2018-05-15T12:39:30.558Z,3.70
2018-05-15T12:40:30.765Z,3.70
2018-05-15T12:41:32.089Z,3.60
2018-05-15T12:42:32.574Z,3.60
2018-05-15T12:43:30.715Z,4.10
2018-05-15T12:44:30.688Z,3.90
2018-05-15T12:45:30.578Z,3.50
2018-05-15T12:46:31.407Z,3.70
2018-05-15T12:47:30.540Z,3.30
2018-05-15T12:48:30.792Z,3.30
2018-05-15T12:49:31.102Z,3.50
2018-05-15T12:50:30.666Z,3.60
2018-05-15T12:51:30.633Z,3.50
2018-05-15T12:52:31.084Z,3.70
2018-05-15T12:53:30.791Z,3.60
2018-05-15T12:54:30.729Z,3.40
2018-05-15T12:55:30.812Z,3.50
2018-05-15T12:56:31.205Z,3.70
2018-05-15T12:57:30.197Z,3.60
2018-05-15T12:58:30.788Z,3.70
2018-05-15T12:59:30.828Z,3.50
2018-05-15T13:00:31.097Z,3.30
2018-05-15T13:01:31.292Z,3.30
2018-05-15T13:02:30.252Z,3.50
2018-05-15T13:03:32.979Z,3.50
2018-05-15T13:04:31.310Z,3.30
2018-05-15T13:05:31.590Z,3.30
2018-05-15T13:06:30.857Z,3.30
2018-05-15T13:07:30.836Z,3.80
2018-05-15T13:08:30.876Z,3.70
2018-05-15T13:09:33.094Z,3.30
2018-05-15T13:10:31.606Z,3.50
2018-05-15T13:11:31.234Z,3.30
2018-05-15T13:12:31.573Z,3.30
2018-05-15T13:13:31.798Z,3.50
2018-05-15T13:14:31.047Z,3.40
2018-05-15T13:15:30.972Z,3.40
2018-05-15T13:16:31.313Z,3.40
2018-05-15T13:17:31.537Z,3.40
2018-05-15T13:18:31.228Z,3.40
2018-05-15T13:19:31.565Z,3.20
2018-05-15T13:20:31.128Z,4.00
2018-05-15T13:21:31.632Z,4.20